Time;durP1;ratioP1;P1;durP2;ratioP2;P2;SDS_P1;SDS_P2;PMS_P1;PMS_P2;Temp;Humidity;BMP_temperature;BMP_pressure;BME280_temperature;BME280_humidity;BME280_pressure;Samples;Min_cycle;Max_cycle;Signal;HPM_P1;HPM_P2
2021/04/19 00:02:25;;;;;;;;;;;10.80;99.90;;;;;;5017377;28;19933;-66
2021/04/19 00:04:51;;;;;;;;;;;10.80;99.90;;;;;;5024540;28;19931;-66
2021/04/19 00:07:18;;;;;;;;;;;10.80;99.90;;;;;;5023599;28;19937;-66
2021/04/19 00:09:45;;;;;;;;;;;10.80;99.90;;;;;;5028599;28;19933;-66
2021/04/19 00:12:12;;;;;;;;;;;10.80;99.90;;;;;;5034449;28;19936;-66
2021/04/19 00:14:38;;;;;;;;;;;10.80;99.90;;;;;;5020854;28;19925;-65
2021/04/19 00:17:05;;;;;;;;;;;10.80;99.90;;;;;;5021000;28;19929;-66
2021/04/19 00:19:31;;;;;;;;;;;10.80;99.90;;;;;;5032296;28;19930;-65
2021/04/19 00:21:57;;;;;;;;;;;10.70;99.90;;;;;;5031389;28;19926;-65
2021/04/19 00:24:24;;;;;;;;;;;10.80;99.90;;;;;;5021769;28;19976;-65
2021/04/19 00:26:50;;;;;;;;;;;10.70;99.90;;;;;;5030426;28;19929;-65
2021/04/19 00:29:17;;;;;;;;;;;10.70;99.90;;;;;;5017774;28;19936;-65
2021/04/19 00:31:43;;;;;;;;;;;10.70;99.90;;;;;;5031588;28;19998;-66
2021/04/19 00:34:10;;;;;;;;;;;10.70;99.90;;;;;;5013108;28;19988;-65
2021/04/19 00:36:36;;;;;;;;;;;10.60;99.90;;;;;;5005952;28;19930;-66
2021/04/19 00:39:03;;;;;;;;;;;10.60;99.90;;;;;;5004166;28;19926;-66
2021/04/19 00:41:29;;;;;;;;;;;10.60;99.90;;;;;;5024568;28;19930;-66
2021/04/19 00:43:56;;;;;;;;;;;10.60;99.90;;;;;;5019389;28;19929;-67
2021/04/19 00:46:24;;;;;;;;;;;10.60;99.90;;;;;;5023129;28;19934;-64
2021/04/19 00:48:51;;;;;;;;;;;10.60;99.90;;;;;;5013705;28;19925;-64
2021/04/19 00:51:17;;;;;;;;;;;10.50;99.90;;;;;;5023289;28;19925;-64
2021/04/19 00:53:44;;;;;;;;;;;10.40;99.90;;;;;;5028429;28;19925;-64
2021/04/19 00:56:10;;;;;;;;;;;10.40;99.90;;;;;;5012881;28;20357;-64
2021/04/19 00:58:37;;;;;;;;;;;10.40;99.90;;;;;;5015929;28;19938;-64
2021/04/19 01:01:04;;;;;;;;;;;10.40;99.90;;;;;;5005742;28;20403;-64
2021/04/19 01:03:32;;;;;;;;;;;10.30;99.90;;;;;;5009298;28;19925;-64
2021/04/19 01:05:58;;;;;;;;;;;10.30;99.90;;;;;;5007561;28;19925;-64
2021/04/19 01:08:25;;;;;;;;;;;10.20;99.90;;;;;;5017726;28;19953;-64
2021/04/19 01:10:51;;;;;;;;;;;10.20;99.90;;;;;;5034064;28;19987;-65
2021/04/19 01:13:17;;;;;;;;;;;10.20;99.90;;;;;;5034609;28;19929;-65
2021/04/19 01:15:44;;;;;;;;;;;10.20;99.90;;;;;;5020786;28;20343;-65
2021/04/19 01:18:10;;;;;;;;;;;10.10;99.90;;;;;;5011082;28;20364;-64
2021/04/19 01:20:38;;;;;;;;;;;10.10;99.90;;;;;;5024964;28;20081;-64
2021/04/19 01:23:05;;;;;;;;;;;10.10;99.90;;;;;;5013144;28;20388;-65
2021/04/19 01:25:31;;;;;;;;;;;10.10;99.90;;;;;;5029197;28;19932;-65
2021/04/19 01:27:58;;;;;;;;;;;10.00;99.90;;;;;;5034515;28;19948;-65
2021/04/19 01:30:25;;;;;;;;;;;10.00;99.90;;;;;;5026099;28;19940;-65
2021/04/19 01:32:52;;;;;;;;;;;10.00;99.90;;;;;;5024824;28;19936;-65
2021/04/19 01:35:19;;;;;;;;;;;10.00;99.90;;;;;;5010393;28;19941;-65
2021/04/19 01:37:46;;;;;;;;;;;10.00;99.90;;;;;;5013788;28;19933;-65
2021/04/19 01:40:13;;;;;;;;;;;10.00;99.90;;;;;;5028179;28;19932;-65
2021/04/19 01:42:40;;;;;;;;;;;10.00;99.90;;;;;;5018089;28;19987;-65
2021/04/19 01:45:07;;;;;;;;;;;10.00;99.90;;;;;;5009151;28;19944;-65
2021/04/19 01:47:33;;;;;;;;;;;10.00;99.90;;;;;;5013664;28;19925;-65
2021/04/19 01:50:05;;;;;;;;;;;10.00;99.90;;;;;;5008216;28;19926;-65
2021/04/19 01:52:32;;;;;;;;;;;10.00;99.90;;;;;;5013676;28;20000;-65
2021/04/19 01:54:59;;;;;;;;;;;9.90;99.90;;;;;;4998680;28;19926;-65
2021/04/19 01:57:25;;;;;;;;;;;9.90;99.90;;;;;;5022572;28;19929;-65
2021/04/19 01:59:52;;;;;;;;;;;9.80;99.90;;;;;;5022312;28;19925;-65
2021/04/19 02:02:20;;;;;;;;;;;9.80;99.90;;;;;;5022597;28;19925;-66
2021/04/19 02:04:49;;;;;;;;;;;9.70;99.90;;;;;;5022664;28;19925;-66
2021/04/19 02:07:21;;;;;;;;;;;9.70;99.90;;;;;;5013407;28;19937;-66
2021/04/19 02:09:50;;;;;;;;;;;9.70;99.90;;;;;;5018479;28;19925;-66
2021/04/19 02:12:21;;;;;;;;;;;9.60;99.90;;;;;;5029852;28;19925;-66
2021/04/19 02:14:50;;;;;;;;;;;9.60;99.90;;;;;;5020881;28;20300;-66
2021/04/19 02:17:20;;;;;;;;;;;9.60;99.90;;;;;;5025170;28;19976;-66
2021/04/19 02:19:50;;;;;;;;;;;9.60;99.90;;;;;;5030673;28;20394;-66
2021/04/19 02:22:17;;;;;;;;;;;9.60;99.90;;;;;;5012625;28;20268;-66
2021/04/19 02:24:45;;;;;;;;;;;9.60;99.90;;;;;;5013080;28;19934;-66
2021/04/19 02:27:14;;;;;;;;;;;9.60;99.90;;;;;;5019560;28;19944;-66
2021/04/19 02:29:42;;;;;;;;;;;9.60;99.90;;;;;;5032928;28;20282;-66
2021/04/19 02:32:11;;;;;;;;;;;9.60;99.90;;;;;;5030799;28;19932;-65
2021/04/19 02:34:37;;;;;;;;;;;9.60;99.90;;;;;;5004247;28;19933;-65
2021/04/19 02:37:04;;;;;;;;;;;9.60;99.90;;;;;;5012547;28;19933;-64
2021/04/19 02:39:32;;;;;;;;;;;9.60;99.90;;;;;;5029443;28;20351;-65
2021/04/19 02:42:00;;;;;;;;;;;9.60;99.90;;;;;;5011332;28;19957;-65
2021/04/19 02:44:27;;;;;;;;;;;9.60;99.90;;;;;;5030838;28;19925;-66
2021/04/19 02:46:55;;;;;;;;;;;9.60;99.90;;;;;;5019715;28;19926;-66
2021/04/19 02:49:22;;;;;;;;;;;9.60;99.90;;;;;;5015164;28;20312;-66
2021/04/19 02:51:50;;;;;;;;;;;9.60;99.90;;;;;;5008079;28;19925;-66
2021/04/19 02:54:17;;;;;;;;;;;9.60;99.90;;;;;;5012827;28;20283;-66
2021/04/19 02:56:44;;;;;;;;;;;9.60;99.90;;;;;;5007260;28;19926;-65
2021/04/19 02:59:11;;;;;;;;;;;9.60;99.90;;;;;;5012767;28;19926;-65
2021/04/19 03:01:40;;;;;;;;;;;9.60;99.90;;;;;;5012367;28;19926;-65
2021/04/19 03:04:08;;;;;;;;;;;9.60;99.90;;;;;;5007205;28;19926;-65
2021/04/19 03:06:37;;;;;;;;;;;9.60;99.90;;;;;;5010617;28;19944;-66
2021/04/19 03:09:05;;;;;;;;;;;9.60;99.90;;;;;;5012718;28;19937;-66
2021/04/19 03:11:34;;;;;;;;;;;9.60;99.90;;;;;;5009397;28;19925;-66
2021/04/19 03:14:01;;;;;;;;;;;9.50;99.90;;;;;;5005195;28;19934;-66
2021/04/19 03:16:29;;;;;;;;;;;9.50;99.90;;;;;;5016508;28;19936;-67
2021/04/19 03:18:56;;;;;;;;;;;9.50;99.90;;;;;;5024455;28;19948;-67
2021/04/19 03:21:25;;;;;;;;;;;9.50;99.90;;;;;;5028939;28;20251;-67
2021/04/19 03:23:53;;;;;;;;;;;9.50;99.90;;;;;;5014695;28;20253;-67
2021/04/19 03:26:20;;;;;;;;;;;9.50;99.90;;;;;;5020333;28;20350;-67
2021/04/19 03:28:48;;;;;;;;;;;9.60;99.90;;;;;;5022164;28;19944;-66
2021/04/19 03:31:17;;;;;;;;;;;9.50;99.90;;;;;;5029853;28;20414;-66
2021/04/19 03:33:48;;;;;;;;;;;9.50;99.90;;;;;;5016671;28;20698;-66
2021/04/19 03:36:15;;;;;;;;;;;9.50;99.90;;;;;;5020625;28;19936;-66
2021/04/19 03:38:43;;;;;;;;;;;9.50;99.90;;;;;;5005050;28;19934;-66
2021/04/19 03:41:10;;;;;;;;;;;9.50;99.90;;;;;;5023128;28;19925;-67
2021/04/19 03:43:37;;;;;;;;;;;9.40;99.90;;;;;;5036176;28;19925;-66
2021/04/19 03:46:05;;;;;;;;;;;9.40;99.90;;;;;;5022511;28;20324;-65
2021/04/19 03:48:32;;;;;;;;;;;9.40;99.90;;;;;;5000742;28;20419;-66
2021/04/19 03:51:02;;;;;;;;;;;9.40;99.90;;;;;;5000005;28;19941;-67
2021/04/19 03:53:28;;;;;;;;;;;9.40;99.90;;;;;;5016355;28;19926;-66
2021/04/19 03:55:56;;;;;;;;;;;9.40;99.90;;;;;;5016373;28;19925;-66
2021/04/19 03:58:24;;;;;;;;;;;9.40;99.90;;;;;;5002502;28;20132;-67
2021/04/19 04:00:51;;;;;;;;;;;9.40;99.90;;;;;;4997649;28;20403;-66
2021/04/19 04:03:18;;;;;;;;;;;9.40;99.90;;;;;;5004527;28;19925;-66
2021/04/19 04:05:45;;;;;;;;;;;9.40;99.90;;;;;;4996579;28;19933;-66
2021/04/19 04:08:12;;;;;;;;;;;9.40;99.90;;;;;;4998033;28;19926;-66
2021/04/19 04:10:38;;;;;;;;;;;9.40;99.90;;;;;;5000395;28;19925;-66
2021/04/19 04:13:05;;;;;;;;;;;9.40;99.90;;;;;;4997204;28;19988;-66
2021/04/19 04:15:32;;;;;;;;;;;9.40;99.90;;;;;;4996661;28;19925;-66
2021/04/19 04:17:58;;;;;;;;;;;9.40;99.90;;;;;;5008318;28;19964;-66
2021/04/19 04:20:24;;;;;;;;;;;9.50;99.90;;;;;;5013142;28;20395;-66
2021/04/19 04:22:51;;;;;;;;;;;9.50;99.90;;;;;;5026930;28;19925;-67
2021/04/19 04:25:17;;;;;;;;;;;9.50;99.90;;;;;;5003120;28;19926;-67
2021/04/19 04:27:44;;;;;;;;;;;9.40;99.90;;;;;;5003724;28;19975;-67
2021/04/19 04:30:12;;;;;;;;;;;9.40;99.90;;;;;;5022325;28;20252;-66
2021/04/19 04:32:38;;;;;;;;;;;9.40;99.90;;;;;;5032482;28;19933;-67
2021/04/19 04:35:05;;;;;;;;;;;9.40;99.90;;;;;;5015251;28;19980;-66
2021/04/19 04:37:31;;;;;;;;;;;9.40;99.90;;;;;;5011263;28;19940;-66
2021/04/19 04:39:58;;;;;;;;;;;9.40;99.90;;;;;;5001427;28;19926;-66
2021/04/19 04:42:25;;;;;;;;;;;9.40;99.90;;;;;;5044057;28;20314;-67
2021/04/19 04:44:52;;;;;;;;;;;9.50;99.90;;;;;;5035497;28;19932;-67
2021/04/19 04:47:24;;;;;;;;;;;9.40;99.90;;;;;;5035327;28;19929;-67
2021/04/19 04:49:56;;;;;;;;;;;9.50;99.90;;;;;;5035383;28;20355;-67
2021/04/19 04:52:23;;;;;;;;;;;9.50;99.90;;;;;;5035048;28;19932;-66
2021/04/19 04:54:50;;;;;;;;;;;9.50;99.90;;;;;;5035090;28;19991;-67
2021/04/19 04:57:20;;;;;;;;;;;9.50;99.90;;;;;;5035254;28;19925;-67
2021/04/19 04:59:47;;;;;;;;;;;9.60;99.90;;;;;;5035040;28;20127;-66
2021/04/19 05:02:14;;;;;;;;;;;9.60;99.90;;;;;;5034947;28;19933;-67
2021/04/19 05:04:41;;;;;;;;;;;9.60;99.90;;;;;;5031641;28;19925;-66
2021/04/19 05:07:08;;;;;;;;;;;9.70;99.90;;;;;;5023959;28;19933;-66
2021/04/19 05:09:35;;;;;;;;;;;9.70;99.90;;;;;;5005418;28;20254;-67
2021/04/19 05:12:01;;;;;;;;;;;9.60;99.90;;;;;;4999636;28;20000;-67
2021/04/19 05:14:27;;;;;;;;;;;9.70;99.90;;;;;;5028267;28;20316;-67
2021/04/19 05:16:54;;;;;;;;;;;9.70;99.90;;;;;;5017423;28;20670;-67
2021/04/19 05:19:20;;;;;;;;;;;9.80;99.90;;;;;;5015283;28;20323;-67
2021/04/19 05:21:47;;;;;;;;;;;9.80;99.90;;;;;;5011456;28;19983;-67
2021/04/19 05:24:13;;;;;;;;;;;9.90;99.90;;;;;;5014946;28;19940;-67
2021/04/19 05:26:40;;;;;;;;;;;9.90;99.90;;;;;;5014090;28;19925;-66
2021/04/19 05:29:06;;;;;;;;;;;9.90;99.90;;;;;;5014965;28;19925;-67
2021/04/19 05:31:32;;;;;;;;;;;9.90;99.90;;;;;;5014148;28;19926;-67
2021/04/19 05:34:02;;;;;;;;;;;9.90;99.90;;;;;;5014903;28;19925;-67
2021/04/19 05:36:29;;;;;;;;;;;10.00;99.90;;;;;;5009943;28;19933;-67
2021/04/19 05:38:56;;;;;;;;;;;10.00;99.90;;;;;;5005898;28;19925;-67
2021/04/19 05:41:23;;;;;;;;;;;10.10;99.90;;;;;;5036719;28;19936;-66
2021/04/19 05:43:49;;;;;;;;;;;10.10;99.90;;;;;;5033732;28;20398;-67
2021/04/19 05:46:16;;;;;;;;;;;10.20;99.90;;;;;;5034073;28;20275;-67
2021/04/19 05:48:43;;;;;;;;;;;10.10;99.90;;;;;;5032378;28;19929;-67
2021/04/19 05:51:13;;;;;;;;;;;10.20;99.90;;;;;;5014786;28;19937;-67
2021/04/19 05:53:39;;;;;;;;;;;10.20;99.90;;;;;;5006900;28;20045;-67
2021/04/19 05:56:12;;;;;;;;;;;10.20;99.90;;;;;;4994956;28;20008;-67
2021/04/19 05:58:45;;;;;;;;;;;10.20;99.90;;;;;;5000237;28;20168;-66
2021/04/19 06:01:13;;;;;;;;;;;10.20;99.90;;;;;;5014427;28;19926;-67
2021/04/19 06:03:42;;;;;;;;;;;10.20;99.90;;;;;;5008325;28;19925;-67
2021/04/19 06:06:15;;;;;;;;;;;10.20;99.90;;;;;;5009348;28;20258;-66
2021/04/19 06:08:43;;;;;;;;;;;10.30;99.90;;;;;;5001813;28;19932;-67
2021/04/19 06:11:16;;;;;;;;;;;10.30;99.90;;;;;;5008722;28;19937;-67
2021/04/19 06:13:44;;;;;;;;;;;10.30;99.90;;;;;;5007161;28;20125;-67
2021/04/19 06:16:11;;;;;;;;;;;10.40;99.90;;;;;;5013898;28;19936;-67
2021/04/19 06:18:40;;;;;;;;;;;10.40;99.90;;;;;;5021721;28;19939;-67
2021/04/19 06:21:06;;;;;;;;;;;10.40;99.90;;;;;;5014314;28;19929;-67
2021/04/19 06:23:34;;;;;;;;;;;10.40;99.90;;;;;;5009240;28;19956;-67
2021/04/19 06:26:00;;;;;;;;;;;10.40;99.90;;;;;;5010469;28;20699;-67
2021/04/19 06:28:28;;;;;;;;;;;10.40;99.90;;;;;;5013154;28;19926;-66
2021/04/19 06:30:58;;;;;;;;;;;10.50;99.90;;;;;;5004978;28;19937;-66
2021/04/19 06:33:26;;;;;;;;;;;10.50;99.90;;;;;;5006919;28;19929;-68
2021/04/19 06:35:53;;;;;;;;;;;10.50;99.90;;;;;;5010262;28;20025;-67
2021/04/19 06:38:22;;;;;;;;;;;10.50;99.90;;;;;;5018470;28;19929;-66
2021/04/19 06:40:51;;;;;;;;;;;10.70;99.90;;;;;;5020754;28;19925;-66
2021/04/19 06:43:18;;;;;;;;;;;10.70;99.90;;;;;;5032166;28;20024;-66
2021/04/19 06:45:48;;;;;;;;;;;10.80;99.90;;;;;;5023541;28;20009;-66
2021/04/19 06:48:15;;;;;;;;;;;10.80;99.90;;;;;;5013229;28;19941;-66
2021/04/19 06:50:43;;;;;;;;;;;10.90;99.90;;;;;;5013185;28;20382;-66
2021/04/19 06:53:10;;;;;;;;;;;10.90;99.90;;;;;;5011473;28;20028;-67
2021/04/19 06:55:38;;;;;;;;;;;11.00;99.90;;;;;;5007100;28;20036;-67
2021/04/19 06:58:05;;;;;;;;;;;11.00;99.90;;;;;;5012462;28;19945;-67
2021/04/19 07:00:32;;;;;;;;;;;11.10;99.90;;;;;;4993865;28;19933;-66
2021/04/19 07:02:59;;;;;;;;;;;11.10;99.90;;;;;;4994237;28;19926;-66
2021/04/19 07:05:27;;;;;;;;;;;11.20;99.90;;;;;;4995789;28;19996;-67
2021/04/19 07:08:02;;;;;;;;;;;11.20;99.90;;;;;;5012511;28;19933;-66
2021/04/19 07:10:29;;;;;;;;;;;11.20;99.90;;;;;;5000559;28;20458;-67
2021/04/19 07:12:57;;;;;;;;;;;11.30;99.90;;;;;;4995999;28;19976;-66
2021/04/19 07:15:23;;;;;;;;;;;11.40;99.90;;;;;;4997048;28;19992;-67
2021/04/19 07:17:50;;;;;;;;;;;11.40;99.90;;;;;;5001092;28;19972;-66
2021/04/19 07:20:18;;;;;;;;;;;11.40;99.90;;;;;;5026506;28;19926;-67
2021/04/19 07:22:45;;;;;;;;;;;11.40;99.90;;;;;;5012790;28;19937;-66
2021/04/19 07:25:11;;;;;;;;;;;11.40;99.90;;;;;;5012741;28;19937;-66
2021/04/19 07:27:39;;;;;;;;;;;11.50;99.90;;;;;;5013193;28;20344;-66
2021/04/19 07:30:08;;;;;;;;;;;11.50;99.90;;;;;;5012531;28;19960;-67
2021/04/19 07:32:35;;;;;;;;;;;11.50;99.90;;;;;;5012938;28;19929;-67
2021/04/19 07:35:01;;;;;;;;;;;11.50;99.90;;;;;;5012465;28;19925;-66
2021/04/19 07:37:29;;;;;;;;;;;11.60;99.90;;;;;;5027213;28;20085;-67
2021/04/19 07:39:56;;;;;;;;;;;11.60;99.90;;;;;;5016714;28;19932;-67
2021/04/19 07:42:23;;;;;;;;;;;11.70;99.90;;;;;;5039278;28;19936;-67
2021/04/19 07:44:50;;;;;;;;;;;11.80;99.90;;;;;;5032269;28;19965;-67
2021/04/19 07:47:24;;;;;;;;;;;11.90;99.90;;;;;;5032424;28;19925;-68
2021/04/19 07:49:58;;;;;;;;;;;11.90;99.90;;;;;;5022973;28;19926;-68
2021/04/19 07:52:27;;;;;;;;;;;12.00;99.90;;;;;;5012894;28;20272;-67
2021/04/19 07:55:05;;;;;;;;;;;12.00;99.90;;;;;;5011630;28;20311;-68
2021/04/19 07:57:32;;;;;;;;;;;12.10;99.90;;;;;;5012770;28;20048;-68
2021/04/19 07:59:58;;;;;;;;;;;12.10;99.90;;;;;;5012388;28;20348;-68
2021/04/19 08:02:25;;;;;;;;;;;12.10;99.90;;;;;;5011640;28;19925;-68
2021/04/19 08:04:52;;;;;;;;;;;12.10;99.90;;;;;;5012286;28;19926;-68
2021/04/19 08:07:20;;;;;;;;;;;12.10;99.90;;;;;;5011690;28;19941;-68
2021/04/19 08:09:54;;;;;;;;;;;12.10;99.90;;;;;;5012536;28;19926;-68
2021/04/19 08:12:31;;;;;;;;;;;12.10;99.90;;;;;;5012792;28;19925;-68
2021/04/19 08:14:57;;;;;;;;;;;12.10;99.90;;;;;;5006008;28;20003;-68
2021/04/19 08:17:27;;;;;;;;;;;12.20;99.90;;;;;;4995127;28;19930;-66
2021/04/19 08:19:55;;;;;;;;;;;12.20;99.90;;;;;;4996280;28;20441;-67
2021/04/19 08:22:23;;;;;;;;;;;12.20;99.90;;;;;;4996848;28;19949;-67
2021/04/19 08:24:50;;;;;;;;;;;12.30;99.90;;;;;;4996276;28;20086;-67
2021/04/19 08:27:20;;;;;;;;;;;12.30;99.90;;;;;;4996667;28;19925;-67
2021/04/19 08:29:48;;;;;;;;;;;12.30;99.90;;;;;;5003126;28;19937;-67
2021/04/19 08:32:17;;;;;;;;;;;12.40;99.90;;;;;;5016096;28;19933;-67
2021/04/19 08:34:43;;;;;;;;;;;12.40;99.90;;;;;;5016354;28;19929;-67
2021/04/19 08:37:11;;;;;;;;;;;12.40;99.90;;;;;;5023644;28;20280;-67
2021/04/19 08:39:38;;;;;;;;;;;12.40;99.90;;;;;;5015985;28;19983;-68
2021/04/19 08:42:04;;;;;;;;;;;12.50;99.90;;;;;;5002984;28;19976;-67
2021/04/19 08:44:32;;;;;;;;;;;12.50;99.90;;;;;;5035433;28;19925;-67
2021/04/19 08:47:00;;;;;;;;;;;12.60;99.90;;;;;;5035337;28;19932;-67
2021/04/19 08:49:27;;;;;;;;;;;12.70;99.90;;;;;;5035156;28;19936;-68
2021/04/19 08:51:53;;;;;;;;;;;12.70;99.90;;;;;;5034162;28;19925;-67
2021/04/19 08:54:20;;;;;;;;;;;12.90;99.90;;;;;;5034496;28;20360;-67
2021/04/19 08:56:47;;;;;;;;;;;13.00;99.90;;;;;;5035275;28;20356;-67
2021/04/19 08:59:14;;;;;;;;;;;13.10;99.90;;;;;;5034136;28;19925;-67
2021/04/19 09:01:41;;;;;;;;;;;13.20;99.90;;;;;;5035516;28;20260;-67
2021/04/19 09:04:09;;;;;;;;;;;13.30;99.90;;;;;;5034671;28;19925;-67
2021/04/19 09:06:42;;;;;;;;;;;13.40;99.90;;;;;;5028563;28;19980;-67
2021/04/19 09:09:09;;;;;;;;;;;13.40;99.90;;;;;;5015106;28;20012;-67
2021/04/19 09:11:36;;;;;;;;;;;13.50;99.90;;;;;;5015461;28;19925;-67
2021/04/19 09:14:06;;;;;;;;;;;13.50;99.90;;;;;;5014683;28;20336;-67
2021/04/19 09:16:35;;;;;;;;;;;13.50;99.90;;;;;;5006983;28;19929;-67
2021/04/19 09:19:02;;;;;;;;;;;13.50;99.90;;;;;;5017531;28;19926;-67
2021/04/19 09:21:39;;;;;;;;;;;13.50;99.90;;;;;;5034803;28;20359;-67
2021/04/19 09:24:07;;;;;;;;;;;13.60;99.90;;;;;;5034328;28;19925;-67
2021/04/19 09:26:44;;;;;;;;;;;13.60;99.90;;;;;;5035070;28;19929;-67
2021/04/19 09:29:10;;;;;;;;;;;13.70;99.90;;;;;;5033378;28;20399;-67
2021/04/19 09:31:58;;;;;;;;;;;13.70;99.90;;;;;;5020044;28;19930;-67
2021/04/19 09:34:39;;;;;;;;;;;13.80;99.90;;;;;;5034355;28;19929;-67
2021/04/19 09:37:08;;;;;;;;;;;13.80;99.90;;;;;;5034048;28;20023;-67
2021/04/19 09:39:47;;;;;;;;;;;13.90;99.90;;;;;;5034527;28;19932;-68
2021/04/19 09:42:14;;;;;;;;;;;13.90;99.90;;;;;;5032146;28;20307;-68
2021/04/19 09:44:51;;;;;;;;;;;14.00;99.90;;;;;;5033324;28;19936;-67
2021/04/19 09:47:38;;;;;;;;;;;14.10;99.90;;;;;;5033764;28;19932;-67
2021/04/19 09:50:04;;;;;;;;;;;14.10;99.90;;;;;;5033683;28;19952;-67
2021/04/19 09:52:34;;;;;;;;;;;14.20;99.90;;;;;;5033376;28;21412;-67
2021/04/19 09:55:01;;;;;;;;;;;14.30;99.90;;;;;;5034320;28;19936;-67
2021/04/19 09:57:27;;;;;;;;;;;14.40;99.90;;;;;;5022257;28;19936;-68
2021/04/19 09:59:54;;;;;;;;;;;14.40;99.90;;;;;;5014573;28;20367;-67
2021/04/19 10:02:21;;;;;;;;;;;14.40;99.90;;;;;;5013593;28;19933;-68
2021/04/19 10:04:48;;;;;;;;;;;14.40;99.90;;;;;;5014616;28;19925;-68
2021/04/19 10:07:15;;;;;;;;;;;14.50;99.90;;;;;;5013832;28;19929;-68
2021/04/19 10:09:44;;;;;;;;;;;14.60;99.90;;;;;;5014242;28;19925;-67
2021/04/19 10:12:14;;;;;;;;;;;14.60;99.90;;;;;;5013758;28;20005;-68
2021/04/19 10:14:40;;;;;;;;;;;14.70;99.90;;;;;;5014308;28;19926;-68
2021/04/19 10:17:12;;;;;;;;;;;14.70;99.90;;;;;;5004868;28;20249;-67
2021/04/19 10:19:39;;;;;;;;;;;14.80;99.90;;;;;;5024988;28;19924;-67
2021/04/19 10:22:06;;;;;;;;;;;14.80;99.90;;;;;;5033467;28;19932;-67
2021/04/19 10:24:34;;;;;;;;;;;14.90;99.90;;;;;;5033643;28;19925;-67
2021/04/19 10:27:01;;;;;;;;;;;15.00;99.90;;;;;;5033773;28;19925;-67
2021/04/19 10:29:28;;;;;;;;;;;15.00;99.90;;;;;;5030238;28;20238;-67
2021/04/19 10:31:56;;;;;;;;;;;15.10;99.90;;;;;;5013561;28;19933;-68
2021/04/19 10:34:23;;;;;;;;;;;15.10;99.90;;;;;;5013574;28;19933;-68
2021/04/19 10:36:51;;;;;;;;;;;15.20;99.90;;;;;;5019554;28;19929;-68
2021/04/19 10:39:20;;;;;;;;;;;15.30;99.90;;;;;;5032932;28;19928;-67
2021/04/19 10:41:48;;;;;;;;;;;15.30;99.90;;;;;;5019766;28;19927;-68
2021/04/19 10:44:18;;;;;;;;;;;15.30;99.90;;;;;;5022572;28;19940;-67
2021/04/19 10:46:45;;;;;;;;;;;15.40;99.90;;;;;;5033239;28;19925;-68
2021/04/19 10:49:21;;;;;;;;;;;15.40;99.90;;;;;;5033360;28;19925;-67
2021/04/19 10:51:51;;;;;;;;;;;15.50;99.90;;;;;;5032697;28;19926;-67
2021/04/19 10:54:17;;;;;;;;;;;15.50;99.90;;;;;;5032619;28;19925;-68
2021/04/19 10:56:43;;;;;;;;;;;15.50;99.90;;;;;;5033192;28;19936;-67
2021/04/19 10:59:11;;;;;;;;;;;15.50;99.90;;;;;;5033134;28;20002;-67
2021/04/19 11:01:39;;;;;;;;;;;15.60;99.90;;;;;;5033108;28;19933;-67
2021/04/19 11:04:07;;;;;;;;;;;15.70;99.90;;;;;;5032999;28;20307;-67
2021/04/19 11:06:34;;;;;;;;;;;15.70;99.90;;;;;;5020567;28;19926;-67
2021/04/19 11:09:01;;;;;;;;;;;15.70;99.90;;;;;;5013024;28;19936;-68
2021/04/19 11:11:29;;;;;;;;;;;15.80;99.90;;;;;;5013207;28;19926;-67
2021/04/19 11:14:07;;;;;;;;;;;15.90;99.90;;;;;;5013044;28;19932;-67
2021/04/19 11:16:33;;;;;;;;;;;15.90;99.90;;;;;;5017104;28;19933;-68
2021/04/19 11:19:00;;;;;;;;;;;16.00;99.90;;;;;;5005693;28;20364;-68
2021/04/19 11:21:27;;;;;;;;;;;16.00;99.90;;;;;;5012952;28;19933;-66
2021/04/19 11:24:05;;;;;;;;;;;16.10;99.90;;;;;;5009087;28;19930;-67
2021/04/19 11:26:31;;;;;;;;;;;16.00;99.90;;;;;;4993323;28;19946;-67
2021/04/19 11:28:58;;;;;;;;;;;16.00;99.90;;;;;;5000517;28;19979;-67
2021/04/19 11:31:24;;;;;;;;;;;16.00;99.90;;;;;;5014079;28;20375;-67
2021/04/19 11:34:05;;;;;;;;;;;16.10;99.90;;;;;;5013022;28;19998;-67
2021/04/19 11:36:37;;;;;;;;;;;16.10;99.90;;;;;;5015397;28;19948;-67
2021/04/19 11:39:11;;;;;;;;;;;16.10;99.90;;;;;;5033076;28;20276;-67
2021/04/19 11:41:37;;;;;;;;;;;16.20;99.90;;;;;;5031285;28;19933;-68
2021/04/19 11:44:04;;;;;;;;;;;16.20;99.90;;;;;;5012870;28;19995;-67
2021/04/19 11:46:30;;;;;;;;;;;16.20;99.90;;;;;;5012641;28;19926;-68
2021/04/19 11:48:57;;;;;;;;;;;16.30;99.90;;;;;;5012080;28;19929;-68
2021/04/19 11:51:23;;;;;;;;;;;16.30;99.90;;;;;;5013259;28;20267;-67
2021/04/19 11:53:50;;;;;;;;;;;16.40;99.90;;;;;;5028085;28;19948;-67
2021/04/19 11:56:18;;;;;;;;;;;16.40;99.90;;;;;;5036142;28;19933;-67
2021/04/19 11:58:45;;;;;;;;;;;16.50;99.90;;;;;;5036475;28;19925;-67
2021/04/19 12:01:11;;;;;;;;;;;16.40;99.90;;;;;;5036472;28;20027;-67
2021/04/19 12:03:40;;;;;;;;;;;16.50;99.90;;;;;;5036140;28;20019;-68
2021/04/19 12:06:08;;;;;;;;;;;16.50;99.90;;;;;;5035694;28;19952;-67
2021/04/19 12:08:35;;;;;;;;;;;16.60;99.90;;;;;;5036022;28;19945;-68
2021/04/19 12:11:03;;;;;;;;;;;16.60;99.90;;;;;;5036381;28;19925;-67
2021/04/19 12:13:30;;;;;;;;;;;16.60;99.90;;;;;;5035749;28;19932;-67
2021/04/19 12:15:56;;;;;;;;;;;16.60;99.90;;;;;;5036016;28;20004;-67
2021/04/19 12:18:24;;;;;;;;;;;16.70;99.90;;;;;;5035547;28;19935;-67
2021/04/19 12:20:51;;;;;;;;;;;16.70;99.90;;;;;;5036256;28;19952;-67
2021/04/19 12:23:20;;;;;;;;;;;16.70;99.90;;;;;;5035736;28;20364;-67
2021/04/19 12:25:50;;;;;;;;;;;16.70;99.90;;;;;;5035284;28;20294;-67
2021/04/19 12:28:17;;;;;;;;;;;16.70;99.90;;;;;;5034951;28;19925;-67
2021/04/19 12:30:44;;;;;;;;;;;16.70;99.90;;;;;;5034991;28;19990;-67
2021/04/19 12:33:10;;;;;;;;;;;16.70;99.90;;;;;;5035475;28;19925;-67
2021/04/19 12:35:37;;;;;;;;;;;16.80;99.90;;;;;;5035650;28;19933;-67
2021/04/19 12:38:04;;;;;;;;;;;16.80;99.90;;;;;;5035265;28;19925;-67
2021/04/19 12:40:30;;;;;;;;;;;16.80;99.90;;;;;;5035159;28;19928;-67
2021/04/19 12:42:58;;;;;;;;;;;16.90;99.90;;;;;;5033544;28;19925;-67
2021/04/19 12:45:31;;;;;;;;;;;17.00;99.90;;;;;;5035163;28;19940;-67
2021/04/19 12:47:59;;;;;;;;;;;17.00;99.90;;;;;;5034590;28;19925;-67
2021/04/19 12:50:25;;;;;;;;;;;17.10;99.90;;;;;;5035187;28;19925;-67
2021/04/19 12:52:52;;;;;;;;;;;17.10;99.90;;;;;;5035255;28;19925;-67
2021/04/19 12:55:18;;;;;;;;;;;17.20;99.90;;;;;;5035074;28;19951;-67
2021/04/19 12:57:45;;;;;;;;;;;17.20;99.90;;;;;;5035475;28;20016;-67
2021/04/19 13:00:12;;;;;;;;;;;17.20;99.90;;;;;;5035210;28;19925;-67
2021/04/19 13:02:39;;;;;;;;;;;17.20;99.90;;;;;;5033678;28;19933;-67
2021/04/19 13:05:06;;;;;;;;;;;17.20;99.90;;;;;;5035078;28;19925;-67
2021/04/19 13:07:32;;;;;;;;;;;17.20;99.90;;;;;;5034619;28;20169;-67
2021/04/19 13:09:59;;;;;;;;;;;17.30;99.90;;;;;;5034183;28;19982;-67
2021/04/19 13:12:25;;;;;;;;;;;17.30;99.90;;;;;;5034791;28;20352;-67
2021/04/19 13:14:51;;;;;;;;;;;17.30;99.90;;;;;;5030543;28;19937;-67
2021/04/19 13:17:18;;;;;;;;;;;17.30;99.90;;;;;;5017854;28;20381;-66
2021/04/19 13:19:47;;;;;;;;;;;17.30;99.90;;;;;;5010345;28;19964;-66
2021/04/19 13:22:13;;;;;;;;;;;17.30;99.90;;;;;;5015143;28;19955;-66
2021/04/19 13:24:40;;;;;;;;;;;17.30;99.90;;;;;;5014326;28;19933;-67
2021/04/19 13:27:06;;;;;;;;;;;17.40;99.80;;;;;;5023340;28;19932;-66
2021/04/19 13:29:32;;;;;;;;;;;17.40;99.70;;;;;;5014735;28;19929;-66
2021/04/19 13:31:59;;;;;;;;;;;17.40;99.80;;;;;;5020126;28;20322;-66
2021/04/19 13:34:25;;;;;;;;;;;17.40;99.80;;;;;;5017396;28;19929;-66
2021/04/19 13:36:52;;;;;;;;;;;17.40;99.90;;;;;;5019158;28;19990;-66
2021/04/19 13:39:19;;;;;;;;;;;17.30;99.80;;;;;;5034759;28;19929;-66
2021/04/19 13:41:45;;;;;;;;;;;17.30;99.90;;;;;;5020573;28;20378;-66
2021/04/19 13:44:12;;;;;;;;;;;17.30;99.90;;;;;;5007306;28;19925;-67
2021/04/19 13:46:41;;;;;;;;;;;17.30;99.90;;;;;;5015838;28;19925;-67
2021/04/19 13:49:07;;;;;;;;;;;17.30;99.90;;;;;;5013127;28;20012;-66
2021/04/19 13:51:34;;;;;;;;;;;17.30;99.90;;;;;;5012561;28;20067;-66
2021/04/19 13:54:01;;;;;;;;;;;17.30;99.90;;;;;;5010411;28;19933;-66
2021/04/19 13:56:27;;;;;;;;;;;17.40;99.90;;;;;;5008855;28;19983;-66
2021/04/19 13:58:56;;;;;;;;;;;17.40;99.90;;;;;;5013629;28;19933;-66
2021/04/19 14:01:23;;;;;;;;;;;17.50;99.80;;;;;;5012633;28;19933;-66
2021/04/19 14:03:49;;;;;;;;;;;17.50;99.90;;;;;;5009139;28;19953;-67
2021/04/19 14:06:16;;;;;;;;;;;17.50;99.90;;;;;;5000457;28;19929;-66
2021/04/19 14:08:43;;;;;;;;;;;17.60;99.80;;;;;;5020406;28;19972;-66
2021/04/19 14:11:13;;;;;;;;;;;17.60;99.90;;;;;;5007750;28;19933;-66
2021/04/19 14:13:39;;;;;;;;;;;17.60;99.90;;;;;;5001042;28;19925;-67
2021/04/19 14:16:07;;;;;;;;;;;17.70;99.80;;;;;;5011209;28;19926;-67
2021/04/19 14:18:37;;;;;;;;;;;17.70;99.70;;;;;;5012446;28;20376;-66
2021/04/19 14:21:04;;;;;;;;;;;17.80;99.60;;;;;;5013949;28;20177;-66
2021/04/19 14:23:30;;;;;;;;;;;17.80;99.60;;;;;;5013289;28;19936;-65
2021/04/19 14:26:01;;;;;;;;;;;17.80;99.70;;;;;;5011555;28;20268;-66